x

9442396 - La Push, Wa (lapw1) Weather Station

11:36 - Wed 20th Sep 2017 All times are PDT. -7 hours from GMT.

  • Wind
    10mph, 14mph gusts
  • Sea Temp 51°f
  • Aire Temp 53°f
  • Sea Pressure 1006mb
  • 9442396 - La Push, Wa
  • 9442396 - La Push, Wa

More Historic Weather Station data

Upgrade to MSW Pro to gain access to the past 30 days of data for over 8000 Wavebouys and Weather Stations around the globe.

Join

Comparision Forecast

View Surf forecast
   
mié 09/20 11:36 10 14 mph 1006mb 51f 53f
11:30 11 13 mph 1005.9mb 51f 53f
11:24 11 14 mph 1005.9mb 51f 54f
11:18 9 11 mph 1005.9mb 51f 54f
11:12 9 11 mph 1005.9mb 51f 54f
11:06 9 10 mph 1005.8mb 51f 54f
11:00 9 10 mph 1005.8mb 50f 53f
10:36 6 7 mph 1005.7mb 50f 53f
10:30 5 6 mph 1005.6mb 50f 53f
10:24 3 5 mph 1005.5mb 50f 52f
10:18 5 7 mph 1005.5mb 51f 52f
10:12 5 6 mph 1005.5mb 51f 52f
10:06 5 7 mph 1005.5mb 51f 52f
10:00 3 5 mph 1005.4mb 51f 51f
9:36 1 2 mph 1005.3mb 52f 51f
9:30 1 3 mph 1005.2mb 52f 51f
9:24 1 2 mph 1005.1mb 51f 51f
9:18 1 3 mph 1005.1mb 51f 49f
9:12 2 3 mph 1005mb 51f 49f
9:06 3 5 mph 1005mb 51f 49f
9:00 1 5 mph 1004.9mb 51f 48f
8:36 5 6 mph 1004.8mb 51f 46f
8:30 2 5 mph 1004.8mb 51f 46f
8:24 3 6 mph 1004.7mb 51f 45f
8:18 2 5 mph 1004.7mb 51f 45f
8:12 1 2 mph 1004.6mb 51f 45f
8:06 1 3 mph 1004.6mb 51f 45f
8:00 2 6 mph 1004.6mb 52f 45f
7:36 2 3 mph 1004.4mb 52f 45f
7:30 2 3 mph 1004.4mb 52f 45f
7:24 1 3 mph 1004.3mb 51f 45f
7:18 2 3 mph 1004.3mb 51f 45f
7:12 1 3 mph 1004.3mb 52f 46f
7:06 2 5 mph 1004.3mb 52f 46f
7:00 2 3 mph 1004.2mb 52f 46f
6:36  -  2 mph 1004.1mb 52f 46f
6:30 1 5 mph 1004mb 52f 46f
6:24 5 7 mph 1004mb 52f 46f
6:18 7 7 mph 1003.9mb 52f 46f
6:12 5 6 mph 1003.9mb 52f 46f
6:06 5 6 mph 1003.9mb 52f 46f
6:00 6 7 mph 1003.9mb 52f 47f
5:36 6 7 mph 1003.6mb 52f 47f
5:30 6 7 mph 1003.6mb 52f 47f
5:24 6 6 mph 1003.6mb 52f 47f
5:18 3 5 mph 1003.6mb 52f 47f
5:12 3 5 mph 1003.6mb 52f 47f
5:06 3 5 mph 1003.6mb 53f 47f
5:00 5 6 mph 1003.6mb 53f 47f
4:36 8 10 mph 1003.3mb 53f 47f
4:30 8 10 mph 1003.3mb 53f 47f
4:24 8 10 mph 1003.3mb 53f 47f
4:18 8 9 mph 1003.3mb 53f 47f
4:12 7 9 mph 1003.3mb 53f 48f
4:06 7 9 mph 1003.4mb 53f 48f
4:00 6 9 mph 1003.4mb 53f 48f
3:36 7 9 mph 1003.4mb 53f 48f
3:30 7 9 mph 1003.4mb 53f 48f
3:24 7 9 mph 1003.4mb 53f 48f
3:18 7 10 mph 1003.4mb 53f 48f
3:12 6 9 mph 1003.5mb 53f 48f
3:06 7 10 mph 1003.5mb 53f 48f
3:00 7 10 mph 1003.5mb 53f 48f
2:36 7 9 mph 1003.8mb 53f 48f
2:30 6 8 mph 1003.8mb 53f 48f
2:24 6 8 mph 1003.8mb 53f 48f
2:18 5 8 mph 1003.8mb 53f 48f
2:12 6 8 mph 1003.9mb 53f 48f
2:06 6 8 mph 1003.9mb 53f 48f
2:00 6 7 mph 1003.9mb 53f 48f
1:36 5 8 mph 1003.9mb 53f 48f
1:30 5 8 mph 1003.9mb 53f 48f
1:24 6 8 mph 1003.9mb 53f 48f
1:18 5 7 mph 1003.9mb 53f 48f
1:12 5 9 mph 1003.9mb 53f 48f
1:06 7 9 mph 1004mb 53f 48f
1:00 6 9 mph 1004mb 53f 49f
12:36 6 8 mph 1004.4mb 53f 49f
12:30 5 7 mph 1004.5mb 53f 49f
12:24 5 8 mph 1004.6mb 53f 49f
12:18 6 7 mph 1004.6mb 53f 49f
12:12 5 7 mph 1004.8mb 53f 49f
12:06 5 7 mph 1004.9mb 53f 49f
12:00 3 7 mph 1004.8mb 53f 49f
mar 09/19 11:36 5 7 mph 1005.3mb 53f 49f
11:30 3 6 mph 1005.3mb 53f 49f
11:24 3 6 mph 1005.4mb 53f 49f
11:18 2 6 mph 1005.5mb 53f 49f
11:12 3 5 mph 1005.6mb 53f 49f
11:06 5 6 mph 1005.7mb 53f 50f
11:00 3 5 mph 1005.8mb 53f 50f
10:36 5 6 mph 1006mb 53f 50f
10:30 5 7 mph 1006.1mb 53f 50f
10:24 3 6 mph 1006.2mb 52f 51f
10:18 5 6 mph 1006.3mb 52f 51f
10:12 5 6 mph 1006.2mb 52f 51f
10:06 3 5 mph 1006.3mb 51f 51f
10:00 3 5 mph 1006.3mb 52f 51f
9:36 3 5 mph 1006.5mb 52f 51f
9:30 3 5 mph 1006.6mb 52f 52f
9:24 3 3 mph 1006.7mb 52f 52f
9:18 3 3 mph 1006.7mb 52f 53f
9:12 2 3 mph 1006.7mb 52f 53f
9:06 2 3 mph 1006.7mb 52f 53f
9:00 2 6 mph 1006.8mb 52f 55f
8:36 2 3 mph 1006.9mb 52f 52f
8:30 2 2 mph 1006.9mb 53f 52f
8:24  -  2 mph 1006.9mb 53f 53f
8:18 2 2 mph 1007mb 53f 53f
8:12 2 5 mph 1007.1mb 53f 53f
8:06 3 3 mph 1007.2mb 53f 53f
8:00 3 5 mph 1007.3mb 53f 53f
7:36 3 5 mph 1007.4mb 54f 55f
7:30 3 6 mph 1007.5mb 54f 56f
7:24 5 6 mph 1007.5mb 53f 56f
7:18 5 6 mph 1007.5mb 53f 56f
7:12 5 6 mph 1007.6mb 53f 56f
7:06 5 7 mph 1007.5mb 53f 56f
7:00 5 6 mph 1007.6mb 53f 56f
6:36 3 8 mph 1007.7mb 53f 56f
6:30 6 7 mph 1007.7mb 53f 56f
6:24 7 9 mph 1007.8mb 53f 56f
6:18 6 11 mph 1007.8mb 53f 56f
6:12 7 10 mph 1007.9mb 53f 56f
6:06 8 13 mph 1007.8mb 53f 56f
6:00 9 11 mph 1007.8mb 53f 56f
5:36 6 8 mph - 53f 56f
5:30 7 9 mph - 53f 56f
5:24 7 8 mph - 53f 56f
5:18 6 8 mph - 53f 56f
5:12 6 7 mph - 53f 56f
5:06 6 9 mph - 52f 56f
5:00 6 10 mph - 52f 56f
4:36 5 8 mph 1008.3mb 52f 56f
4:30 5 7 mph 1008.3mb 52f 55f
4:24 6 9 mph 1008.3mb 52f 55f
4:18 6 8 mph 1008.3mb 52f 55f
4:12 5 6 mph 1008.4mb 52f 55f
4:06 5 6 mph 1008.4mb 52f 55f
4:00 3 6 mph 1008.4mb 51f 55f
3:36 6 8 mph 1008.4mb 51f 55f
3:30 6 9 mph 1008.5mb 51f 55f
3:24 7 9 mph 1008.5mb 51f 55f
3:18 6 8 mph 1008.5mb 51f 55f
3:12 6 7 mph 1008.5mb 52f 55f
3:06 6 7 mph 1008.4mb 51f 55f
3:00 6 8 mph 1008.5mb 51f 55f
2:36 6 6 mph 1008.4mb 52f 54f
2:30 5 6 mph 1008.4mb 52f 54f
2:24 5 6 mph 1008.4mb 52f 54f
2:18 5 6 mph 1008.4mb 52f 54f
2:12 5 8 mph 1008.4mb 51f 54f
2:06 6 7 mph 1008.4mb 51f 54f
2:00 6 7 mph 1008.4mb 52f 54f
1:36 7 8 mph 1008.4mb 51f 54f
1:30 8 9 mph 1008.5mb 52f 54f
1:24 7 9 mph 1008.6mb 52f 54f
1:18 9 10 mph 1008.6mb 52f 54f
1:12 8 10 mph 1008.6mb 52f 54f
1:06 9 11 mph 1008.7mb 52f 53f
1:00 10 13 mph 1008.6mb 52f 53f
12:54 10 11 mph 1008.6mb 52f 53f
12:48 9 11 mph 1008.5mb 52f 53f
12:36 11 13 mph 1008.4mb 52f 53f
12:30 10 11 mph 1008.4mb 52f 53f
12:24 9 11 mph 1008.3mb 52f 53f
12:18 8 10 mph 1008.3mb 52f 53f
12:12 8 10 mph 1008.3mb 52f 53f
12:06 9 10 mph 1008.4mb 52f 53f
12:00 9 13 mph 1008.4mb 52f 53f
11:54 8 9 mph 1008.3mb 52f 53f
11:48 8 11 mph 1008.3mb 52f 53f
11:36 9 10 mph 1008.3mb 51f 53f
11:30 10 11 mph 1008.2mb 51f 53f
11:24 9 11 mph 1008.1mb 51f 53f
11:18 10 11 mph 1007.9mb 52f 53f
11:12 8 10 mph 1007.8mb 52f 53f
11:06 8 9 mph 1007.8mb 51f 52f
11:00 8 9 mph 1007.7mb 52f 52f
10:54 6 7 mph 1007.7mb 52f 52f
10:48 6 8 mph 1007.7mb 52f 52f
10:36 7 8 mph 1007.6mb 52f 52f
10:30 7 8 mph 1007.5mb 52f 52f
10:24 7 8 mph 1007.4mb 52f 52f
10:18 6 6 mph 1007.3mb 52f 52f
10:12 5 6 mph 1007.2mb 52f 52f
10:06 5 6 mph 1007.2mb 53f 52f
10:00 5 8 mph 1007.2mb 52f 52f
9:54 6 8 mph 1007.1mb 52f 52f
9:48 3 5 mph 1007.1mb 52f 52f
9:36 1 3 mph 1007mb 53f 52f
9:30 2 5 mph 1007mb 53f 52f
9:24 3 7 mph 1006.9mb 53f 51f
9:18 5 6 mph 1006.8mb 52f 51f
9:12 3 6 mph 1006.8mb 53f 51f
9:06 6 7 mph 1006.7mb 53f 51f
9:00 5 7 mph 1006.7mb 53f 50f
8:54 5 6 mph 1006.6mb 53f 50f
8:48 5 7 mph 1006.5mb 53f 49f
8:36 6 7 mph 1006.3mb 52f 49f
8:30 6 7 mph 1006.2mb 52f 49f
8:24 6 8 mph 1006.2mb 52f 49f
8:18 6 7 mph 1006.1mb 52f 49f
8:12 6 8 mph 1006mb 52f 49f
8:06 6 8 mph 1005.9mb 52f 49f
8:00 6 8 mph 1005.9mb 52f 49f
7:54 6 9 mph 1005.9mb 52f 49f
7:48 5 8 mph 1005.9mb 53f 48f
7:36 5 8 mph 1005.7mb 53f 48f
7:30 6 7 mph 1005.7mb 53f 48f
7:24 6 8 mph 1005.6mb 53f 48f
7:18 6 8 mph 1005.5mb 53f 48f
7:12 5 8 mph 1005.4mb 53f 48f
7:06 6 8 mph 1005.2mb 52f 48f
7:00 6 8 mph 1005.1mb 52f 48f
6:54 6 8 mph 1005.1mb 52f 48f
6:48 5 7 mph 1005.1mb 52f 48f
6:36 5 7 mph 1004.9mb 52f 48f
6:30 6 8 mph 1004.8mb 52f 49f
6:24 5 7 mph 1004.8mb 52f 49f
6:18 3 7 mph 1004.7mb 52f 49f
6:12 5 7 mph 1004.7mb 52f 49f
6:06 3 6 mph 1004.7mb 52f 49f
6:00 3 6 mph 1004.6mb 52f 49f
5:54 5 7 mph 1004.5mb 52f 49f
5:48 5 6 mph 1004.5mb 52f 49f
5:36 5 8 mph 1004.4mb 52f 49f
5:30 5 10 mph 1004.4mb 52f 49f
5:24 6 11 mph 1004.3mb 52f 49f
5:18 8 10 mph 1004.2mb 52f 49f
5:12 5 8 mph 1004.2mb 52f 49f
5:06 3 6 mph 1004.1mb 52f 49f
5:00 5 6 mph 1004mb 52f 49f
4:54 3 6 mph 1003.9mb 52f 49f
4:48 3 6 mph 1003.8mb 52f 49f
4:36 5 7 mph 1003.8mb 52f 50f
4:30 5 9 mph 1003.8mb 52f 50f
4:24 6 9 mph 1003.8mb 52f 49f
4:18 3 8 mph 1003.8mb 52f 49f
4:12 5 8 mph 1003.7mb 53f 49f
4:06 3 7 mph 1003.7mb 53f 48f
4:00 6 6 mph 1003.7mb 53f 48f
3:54 2 6 mph 1003.7mb 53f 48f
3:48 2 6 mph 1003.7mb 53f 48f
3:36 3 8 mph 1003.7mb 53f 48f
3:30 6 9 mph 1003.6mb 53f 48f
3:24 7 9 mph 1003.6mb 52f 48f
3:18 5 7 mph 1003.6mb 52f 48f
3:12 7 9 mph 1003.6mb 52f 48f
3:06 5 8 mph 1003.5mb 52f 48f
3:00 6 8 mph 1003.5mb 52f 49f
2:54 7 9 mph 1003.6mb 52f 48f
2:48 5 9 mph 1003.6mb 52f 48f
2:36 7 9 mph 1003.6mb 52f 49f
2:30 6 7 mph 1003.6mb 52f 49f
2:24 3 7 mph 1003.6mb 52f 49f
2:18 6 7 mph 1003.7mb 52f 49f
2:12 7 9 mph 1003.7mb 52f 49f
2:06 5 8 mph 1003.7mb 53f 49f
2:00 6 8 mph 1003.5mb 53f 49f
1:54 7 10 mph 1003.5mb 53f 49f
1:48 5 7 mph 1003.5mb 52f 49f
1:36 5 8 mph 1003.5mb 52f 49f
1:30 3 8 mph 1003.5mb 52f 49f
1:24 7 9 mph 1003.5mb 53f 49f
1:18 6 8 mph 1003.5mb 53f 49f
1:12 6 8 mph 1003.5mb 53f 49f
1:06 3 7 mph 1003.6mb 53f 49f
1:00 5 7 mph 1003.6mb 53f 49f
12:54 3 6 mph 1003.6mb 53f 49f
12:48 3 6 mph 1003.7mb 52f 49f
12:36 3 6 mph 1003.7mb 53f 49f
12:30 2 6 mph 1003.7mb 53f 49f
12:24 3 6 mph 1003.7mb 53f 49f
12:18 5 6 mph 1003.7mb 53f 49f
12:12 3 6 mph 1003.8mb 53f 49f
12:06 3 6 mph 1003.8mb 53f 49f
12:00 5 6 mph 1003.8mb 53f 49f
lun 09/18 11:54 6 7 mph 1003.8mb 53f 49f
11:48 5 7 mph 1003.7mb 53f 49f
11:36 5 8 mph 1003.8mb 52f 49f
11:30 5 7 mph 1003.9mb 52f 49f
11:24 5 7 mph 1003.9mb 52f 49f
11:18 5 7 mph 1003.9mb 52f 49f
11:12 5 8 mph 1003.9mb 52f 49f
11:06 5 8 mph 1003.9mb 52f 49f
11:00 6 7 mph 1004mb 52f 50f
10:54 5 7 mph 1004mb 52f 50f
10:48 3 10 mph 1004mb 52f 50f
10:36 3 8 mph 1004.1mb 52f 50f
10:30 5 7 mph 1004.1mb 52f 50f
10:24 3 6 mph 1004.2mb 52f 50f
10:18 3 6 mph 1004.2mb 52f 50f
10:12 3 6 mph 1004.1mb 52f 50f
10:06 2 6 mph 1004.1mb 52f 50f
10:00 5 6 mph 1004.1mb 52f 50f
9:54 3 6 mph 1004.1mb 52f 50f
9:48 5 6 mph 1004.1mb 52f 50f
9:36 5 6 mph 1004.1mb 52f 50f
9:30 2 5 mph 1004.2mb 52f 51f
9:24 2 5 mph 1004.2mb 52f 50f
9:18 3 6 mph 1004.1mb 52f 50f
9:12 3 7 mph 1004.1mb 52f 50f
9:06 5 7 mph 1004.2mb 52f 51f
9:00 5 7 mph 1004.2mb 52f 50f
8:54 5 7 mph 1004.3mb 52f 50f
8:48 5 7 mph 1004.3mb 52f 50f
8:36 6 10 mph 1004.3mb 52f 51f
8:30 6 7 mph 1004.4mb 52f 51f
8:24 5 8 mph 1004.4mb 52f 51f
8:18 3 6 mph 1004.4mb 52f 51f
8:12 3 7 mph 1004.4mb 52f 51f
8:06 6 8 mph 1004.4mb 52f 51f
8:00 5 14 mph 1004.5mb 52f 51f
7:54 8 14 mph 1004.4mb 52f 51f
7:48 6 13 mph 1004.5mb 52f 51f
7:36 8 20 mph 1004.6mb 52f 51f
7:30 3 6 mph 1004.7mb 52f 51f
7:24 3 11 mph 1004.7mb 52f 51f
7:18 5 10 mph 1004.8mb 52f 51f
7:12 6 11 mph 1004.8mb 52f 51f
7:06 3 7 mph 1004.8mb 52f 51f
7:00 6 10 mph 1004.6mb 52f 51f
6:54 7 14 mph 1004.5mb 52f 51f
6:48 7 14 mph 1004.6mb 52f 51f
6:36 7 10 mph 1004.4mb 53f 51f
6:30 7 15 mph 1004.4mb 53f 52f
6:24 6 11 mph 1004.5mb 53f 52f
6:18 5 13 mph 1004.5mb 53f 52f
6:12 7 10 mph 1004.6mb 53f 52f
6:06 8 14 mph 1004.7mb 53f 52f
6:00 8 13 mph 1004.8mb 52f 51f
5:54 5 9 mph 1004.8mb 53f 51f
5:48 5 9 mph 1004.9mb 53f 52f
5:36 5 9 mph 1005.1mb 53f 51f
5:30 6 9 mph 1005.1mb 53f 51f
5:24 7 9 mph 1005.1mb 53f 50f
5:18 3 7 mph 1005.2mb 52f 50f
5:12 5 9 mph 1005.3mb 52f 50f
5:06 5 14 mph 1005.4mb 53f 51f
5:00 11 17 mph 1005.6mb 53f 51f
4:54 14 18 mph 1005.7mb 53f 51f
4:48 13 16 mph 1005.8mb 53f 52f
4:36 14 22 mph 1006mb 52f 52f
4:30 9 16 mph 1006mb 52f 52f
4:24 14 18 mph 1006.1mb 52f 51f
4:18 7 8 mph 1005.9mb 52f 51f
4:12 6 8 mph 1005.4mb 52f 51f
4:06 2 8 mph 1005.8mb 52f 51f
4:00 5 8 mph 1005.9mb 52f 51f
3:54 8 17 mph 1005.7mb 52f 51f
3:48 7 11 mph 1005.5mb 52f 52f
3:36 9 17 mph 1005.7mb 51f 53f
3:30 8 14 mph 1005.8mb 51f 52f
3:24 6 16 mph 1005.7mb 51f 52f
3:18 9 14 mph 1005.9mb 51f 53f
3:12 7 11 mph 1006mb 51f 53f
3:06 11 15 mph 1006.1mb 51f 52f
3:00 6 11 mph 1006.2mb 51f 51f
2:54 6 11 mph 1006.1mb 51f 51f
2:48 7 11 mph 1006.2mb 51f 51f
2:36 14 18 mph 1006.6mb 52f 52f
2:30 16 21 mph 1006.6mb 52f 52f
2:24 20 25 mph 1006.6mb 52f 53f
2:18 17 25 mph 1006.4mb 52f 53f
2:12 5 8 mph 1006.2mb 51f 54f
2:06 7 13 mph 1006.3mb 51f 54f
2:00 8 14 mph 1006.3mb 51f 55f
1:54 7 15 mph 1006.3mb 51f 55f
1:48 7 11 mph 1006.4mb 51f 55f
1:36 5 16 mph 1006.7mb 52f 55f
1:30 7 14 mph 1006.7mb 51f 55f
1:24 9 16 mph 1006.7mb 51f 55f
1:18 9 22 mph 1006.8mb 51f 55f
1:12 8 16 mph 1006.9mb 51f 55f
1:06 7 15 mph 1007mb 51f 55f
1:00 9 15 mph 1007mb 51f 55f
12:54 7 15 mph 1007mb 51f 55f
12:48 10 17 mph 1007mb 51f 55f
12:36 8 14 mph 1007.1mb 51f 56f
12:30 8 15 mph 1007.1mb 51f 55f
12:24 9 14 mph 1007mb 51f 55f
12:18 14 17 mph 1007mb 51f 55f
12:12 6 11 mph 1007.1mb 51f 55f
12:06 5 13 mph 1007.2mb 51f 54f
12:00 9 14 mph 1007.3mb 51f 54f
11:54 6 9 mph 1007.3mb 51f 54f
11:48 5 10 mph 1007.4mb 51f 54f
11:36 10 15 mph 1007.4mb 51f 54f
11:30 8 16 mph 1007.4mb 51f 54f
11:24 9 14 mph 1007.5mb 51f 54f
11:18 8 16 mph 1007.5mb 51f 54f
11:12 9 16 mph 1007.5mb 51f 54f
11:06 10 14 mph 1007.5mb 52f 53f
11:00 9 13 mph 1007.5mb 51f 53f
10:54 6 15 mph 1007.6mb 51f 53f
10:48 9 15 mph 1007.6mb 51f 53f
10:36 6 15 mph 1007.6mb 51f 53f
10:30 9 16 mph 1007.6mb 51f 53f
10:24 8 13 mph 1007.6mb 51f 53f
10:18 7 14 mph 1007.5mb 51f 53f
10:12 6 11 mph 1007.5mb 51f 52f
10:06 3 6 mph 1007.5mb 51f 52f
10:00 3 7 mph 1007.5mb 51f 51f
9:54 3 7 mph 1007.5mb 52f 51f
9:48 5 7 mph 1007.5mb 52f 51f
9:36 5 6 mph 1007.5mb 51f 51f
9:30 6 10 mph 1007.4mb 51f 52f
9:24 3 8 mph 1007.4mb 51f 52f
9:18 2 7 mph 1007.3mb 51f 51f
9:12 5 8 mph 1007.3mb 51f 52f
9:06 2 5 mph 1007.3mb 51f 51f
9:00 3 5 mph 1007.3mb 51f 50f
8:54 3 6 mph 1007.3mb 51f 50f
8:48 5 7 mph 1007.3mb 51f 50f
8:36 3 6 mph 1007.4mb 51f 49f
8:30 3 6 mph 1007.6mb 52f 50f
8:24 3 5 mph 1007.6mb 51f 50f
8:18 3 6 mph 1007.6mb 52f 50f
8:12 3 7 mph 1007.7mb 52f 50f
8:06 5 8 mph 1007.7mb 52f 50f
8:00 5 9 mph 1007.8mb 52f 50f
7:54 6 10 mph 1007.7mb 52f 49f
7:48 7 10 mph 1007.6mb 52f 49f
7:36 2 3 mph 1007.9mb 52f 48f
7:30  -  3 mph 1008mb 52f 48f
7:24 1 5 mph 1007.9mb 52f 48f
7:18 3 5 mph 1007.9mb 52f 48f
7:12 3 5 mph 1007.8mb 52f 48f
7:06 3 6 mph 1007.7mb 52f 48f
7:00 5 6 mph 1007.6mb 52f 48f
6:54 3 6 mph 1007.7mb 52f 48f
6:48 3 5 mph 1007.5mb 52f 48f
6:36 5 6 mph 1007.4mb 52f 48f
6:30 3 5 mph 1007.5mb 52f 48f
6:24 5 6 mph 1007.5mb 52f 48f
6:18 5 7 mph 1007.5mb 52f 48f
6:12 5 6 mph 1007.4mb 52f 48f
6:06 5 6 mph 1007.5mb 52f 49f
6:00 3 6 mph 1007.5mb 52f 49f
5:54 3 6 mph 1007.6mb 52f 49f
5:48 3 6 mph 1007.6mb 52f 48f
5:36 5 6 mph 1007.6mb 52f 49f
5:30 5 7 mph 1007.6mb 52f 49f
5:24 5 8 mph 1007.6mb 53f 49f
5:18 5 7 mph 1007.6mb 53f 49f
5:12 5 7 mph 1007.6mb 53f 49f
5:06 5 7 mph 1007.6mb 53f 49f
5:00 6 7 mph 1007.7mb 53f 49f
4:54 3 6 mph 1007.6mb 53f 49f
4:48 5 6 mph 1007.6mb 53f 49f
4:36 3 6 mph 1007.7mb 52f 49f
4:30 2 5 mph 1007.7mb 52f 49f
4:24 2 6 mph 1007.7mb 52f 49f
4:18 5 6 mph 1007.7mb 52f 49f
4:12 6 7 mph 1007.6mb 52f 49f
4:06 6 6 mph 1007.7mb 52f 49f
4:00 5 6 mph 1007.7mb 52f 49f
3:54 5 6 mph 1007.6mb 52f 49f
3:48 5 6 mph 1007.6mb 52f 50f
3:36 3 8 mph 1007.8mb 52f 51f
3:30 6 11 mph 1007.9mb 52f 51f
3:24 7 9 mph 1008.3mb 52f 52f
3:18 3 10 mph 1008.3mb 52f 51f
3:12 7 9 mph 1008.5mb 52f 52f
3:06 2 8 mph 1008.3mb 52f 52f
3:00 10 15 mph 1008.4mb 52f 50f
2:54 6 9 mph 1008.5mb 52f 49f
2:48 3 7 mph 1008.3mb 52f 49f
2:36 6 7 mph 1008.2mb 52f 49f
2:30 6 7 mph 1008.3mb 52f 49f
2:24 5 8 mph 1008.5mb 51f 49f
2:18 5 7 mph 1008.5mb 51f 49f
2:12 6 7 mph 1008.6mb 51f 49f
2:06 5 6 mph 1008.7mb 51f 49f
2:00 6 7 mph 1008.7mb 51f 49f
1:54 6 7 mph 1008.6mb 51f 49f
1:48 6 7 mph 1008.6mb 51f 49f
1:36 6 7 mph 1008.6mb 51f 49f
1:30 7 7 mph 1008.7mb 52f 49f
1:24 5 6 mph 1008.8mb 52f 49f
1:18 6 7 mph 1008.8mb 52f 49f
1:12 5 8 mph 1008.7mb 51f 50f
1:06 6 8 mph 1008.7mb 52f 50f
1:00 6 7 mph 1008.8mb 52f 50f
12:54 5 7 mph 1008.8mb 52f 50f
12:48 5 6 mph 1008.9mb 52f 50f
12:36 6 7 mph 1008.9mb 52f 50f
12:30 5 6 mph 1008.9mb 52f 50f
12:24 5 6 mph 1009mb 52f 50f
12:18 5 7 mph 1009mb 52f 50f
12:12 5 6 mph 1009mb 52f 50f
12:06 6 7 mph 1008.9mb 52f 50f
12:00 5 7 mph 1008.9mb 52f 50f
dom 09/17 11:54 5 6 mph 1009mb 52f 50f
11:48 2 3 mph 1009mb 52f 50f
11:36 5 5 mph 1009.1mb 52f 50f
11:30 5 6 mph 1009.2mb 52f 51f
11:24 5 7 mph 1009.1mb 52f 51f
11:18 3 6 mph 1009.1mb 52f 51f
11:12 5 7 mph 1009.1mb 52f 50f
11:06 2 6 mph 1009.2mb 52f 50f
11:00 3 6 mph 1009.2mb 52f 50f
10:54 3 6 mph 1009.2mb 52f 51f
10:48 5 6 mph 1009.1mb 52f 50f
10:36 2 5 mph 1009.1mb 52f 51f
10:30 3 5 mph 1009.1mb 52f 51f
10:24 5 5 mph 1009.1mb 52f 51f
10:18 2 5 mph 1009.1mb 52f 51f
10:12 3 5 mph 1009.1mb 52f 51f
10:06 5 6 mph 1009.1mb 52f 51f
10:00 3 5 mph 1009.1mb 52f 52f
9:54 5 5 mph 1009.1mb 52f 52f
9:48 5 5 mph 1009.1mb 52f 51f
9:36 3 5 mph 1009.2mb 52f 52f
9:30 3 3 mph 1009.2mb 52f 52f
9:24 2 3 mph 1009.2mb 52f 53f
9:18 2 2 mph 1009.2mb 52f 54f
9:12 1 3 mph 1009.2mb 52f 54f
9:06 2 5 mph 1009.1mb 52f 54f
9:00  -  2 mph 1009.1mb 52f 54f
8:54 2 5 mph 1009.1mb 52f 53f
8:48  -  2 mph 1009.1mb 52f 53f
8:36 1 2 mph 1009mb 52f 53f
8:30  -  1 mph 1009mb 52f 52f
8:24  -  2 mph 1008.9mb 52f 52f
8:18 1 3 mph 1008.9mb 52f 52f
8:12  -  3 mph 1008.9mb 52f 52f
8:06 1 3 mph 1008.8mb 52f 52f
8:00 1 2 mph 1008.7mb 52f 53f
7:54  -  0 mph 1008.7mb 52f 53f
7:48 1 3 mph 1008.6mb 52f 53f
7:36 3 6 mph 1008.6mb 52f 55f
7:30 5 8 mph 1008.5mb 52f 55f
7:24 8 11 mph 1008.5mb 52f 55f
7:18 8 11 mph 1008.5mb 52f 55f
7:12 6 10 mph 1008.4mb 52f 55f
7:06 7 9 mph 1008.5mb 52f 55f
7:00 6 8 mph 1008.5mb 52f 55f
6:54 5 8 mph 1008.5mb 52f 55f
6:36 8 10 mph 1008.5mb 52f 56f
6:30 7 10 mph 1008.6mb 52f 56f
6:24 7 10 mph 1008.6mb 52f 56f
6:18 6 10 mph 1008.6mb 52f 56f
6:12 8 9 mph 1008.6mb 52f 57f
6:06 8 11 mph 1008.6mb 52f 56f
6:00 8 10 mph 1008.6mb 52f 57f
5:54 8 9 mph 1008.6mb 52f 57f
5:48 7 11 mph 1008.6mb 52f 57f
5:36 7 9 mph 1008.6mb 52f 57f
5:30 7 10 mph 1008.5mb 52f 57f
5:24 7 10 mph 1008.5mb 52f 57f
5:18 8 9 mph 1008.4mb 52f 57f
5:12 7 8 mph 1008.4mb 52f 57f
5:06 7 8 mph 1008.3mb 52f 57f
5:00 7 10 mph 1008.4mb 52f 57f
4:54 7 8 mph 1008.3mb 52f 57f
4:48 7 9 mph 1008.3mb 52f 57f
4:36 5 6 mph 1008.2mb 52f 56f
4:30 6 7 mph 1008.2mb 52f 55f
4:24 6 8 mph 1008.2mb 52f 56f
4:18 2 5 mph 1008.2mb 52f 56f
4:12  -  1 mph 1008.2mb 52f 57f
4:06  -  1 mph 1008mb 52f 57f
4:00  -  2 mph 1008mb 52f 55f
3:54 2 3 mph 1007.9mb 52f 55f
3:48 2 6 mph 1007.9mb 52f 54f
3:36 3 6 mph 1007.9mb 52f 53f
3:30 3 7 mph 1007.9mb 52f 53f
3:24 3 8 mph 1007.8mb 52f 52f
3:18 7 9 mph 1007.7mb 52f 52f
3:12 6 8 mph 1007.7mb 52f 53f
3:06 7 9 mph 1007.7mb 52f 53f
3:00 3 8 mph 1007.8mb 52f 53f
2:54 5 7 mph 1007.8mb 52f 52f
2:48 6 8 mph 1007.8mb 52f 52f
2:36 2 6 mph 1008mb 52f 52f
2:30 2 8 mph 1008mb 52f 51f
2:24 3 6 mph 1008.2mb 52f 51f
2:18 5 6 mph 1008.3mb 52f 51f
2:12 6 7 mph 1008.2mb 52f 51f
2:06 6 6 mph 1008.2mb 52f 51f
2:00 5 6 mph 1008.3mb 52f 51f
1:54 5 7 mph 1008.3mb 52f 51f
1:48 6 7 mph 1008.2mb 52f 51f
1:36 6 8 mph 1008.3mb 52f 51f
1:30 6 8 mph 1008.3mb 52f 51f
1:24 5 10 mph 1008.5mb 53f 52f
1:18 3 7 mph 1008.7mb 53f 53f
1:12 7 14 mph 1008.9mb 52f 52f
1:06 11 22 mph 1008.8mb 53f 53f
1:00 20 32 mph 1008.9mb 53f 55f
12:54 14 26 mph 1007.8mb 53f 55f
12:48 14 28 mph 1007.4mb 53f 55f
12:36 21 30 mph 1007mb 53f 56f
12:30 16 33 mph 1006.8mb 52f 56f
12:24 21 29 mph 1006.7mb 52f 56f
12:18 18 34 mph 1006.7mb 52f 56f
12:12 16 31 mph 1006.7mb 52f 56f
12:06 18 28 mph 1006.8mb 52f 56f
12:00 14 29 mph 1006.8mb 52f 56f
11:54 21 31 mph 1006.9mb 52f 56f
11:36 15 25 mph 1007.2mb 52f 56f
11:30 17 29 mph 1007.2mb 52f 56f
11:24 14 23 mph 1007.1mb 52f 56f
11:18 14 25 mph 1007.3mb 52f 56f
11:12 14 21 mph 1007.4mb 53f 56f
11:06 10 26 mph 1007.4mb 53f 56f
11:00 13 20 mph 1007.3mb 53f 56f
10:54 14 23 mph 1007.3mb 53f 56f
10:36 14 25 mph 1007.6mb 53f 57f
10:30 17 29 mph 1007.6mb 53f 56f
10:24 14 23 mph 1007.8mb 53f 56f
10:18 13 22 mph 1007.9mb 53f 56f
10:12 15 30 mph 1008mb 53f 56f
10:06 16 23 mph 1008mb 53f 56f
10:00 15 23 mph 1008.1mb 52f 56f
9:54 14 25 mph 1008.2mb 52f 56f
9:48 17 29 mph 1008.3mb 53f 56f
9:36 15 25 mph 1008.4mb 53f 56f
9:30 14 26 mph 1008.5mb 52f 56f
9:24 15 25 mph 1008.6mb 52f 57f
9:18 13 22 mph 1008.8mb 52f 57f
9:12 14 24 mph 1008.7mb 52f 56f
9:06 11 22 mph 1008.7mb 52f 56f
9:00 11 23 mph 1008.6mb 52f 56f
8:54 13 24 mph 1008.5mb 52f 56f
8:48 10 20 mph 1008.6mb 52f 56f
8:36 9 23 mph 1008.8mb 52f 56f
8:30 11 22 mph 1009mb 52f 56f
8:24 10 21 mph 1009.2mb 52f 56f
8:18 10 17 mph 1009.1mb 52f 56f
8:12 11 17 mph 1009.1mb 52f 55f
8:06 8 16 mph 1009.3mb 52f 55f
8:00 10 17 mph 1009.4mb 53f 55f
7:54 10 15 mph 1009.6mb 53f 55f
7:48 11 18 mph 1009.8mb 53f 55f
7:36 7 20 mph 1009.9mb 53f 55f
7:30 11 18 mph 1010mb 53f 55f
7:24 10 16 mph 1009.9mb 53f 55f
7:18 13 18 mph 1009.9mb 53f 55f
7:12 10 16 mph 1009.8mb 53f 54f
7:06 7 16 mph 1009.9mb 53f 54f
7:00 10 15 mph 1009.9mb 53f 53f
6:54 6 11 mph 1010mb 53f 53f
6:48 6 11 mph 1010.1mb 53f 51f
6:36 7 9 mph 1010.2mb 53f 48f
6:30 6 9 mph 1010.3mb 53f 48f
6:24 7 9 mph 1010.2mb 53f 48f
6:18 7 8 mph 1010.2mb 53f 48f
6:12 8 11 mph 1010.2mb 53f 48f
6:06 7 10 mph 1010.4mb 54f 48f
6:00 6 8 mph 1010.6mb 54f 48f
5:54 6 8 mph 1010.7mb 54f 48f
5:48 6 8 mph 1010.7mb 54f 48f
5:36 6 7 mph 1010.9mb 54f 47f
5:30 5 6 mph 1010.9mb 55f 47f
5:24 5 7 mph 1010.9mb 55f 47f
5:18 5 7 mph 1011mb 55f 47f
5:12 6 7 mph 1011.1mb 55f 47f
5:06 6 8 mph 1011.1mb 55f 47f
5:00 6 7 mph 1011.4mb 55f 47f
4:54 6 7 mph 1011.6mb 55f 47f
4:48 6 7 mph 1011.5mb 55f 47f
4:36 6 7 mph 1011.5mb 55f 47f
4:30 5 8 mph 1011.5mb 55f 47f
4:24 7 9 mph 1011.5mb 55f 47f
4:18 7 9 mph 1011.4mb 55f 47f
4:12 6 8 mph 1011.5mb 55f 47f
4:06 3 8 mph 1011.6mb 54f 47f
4:00 7 9 mph 1011.5mb 54f 47f
3:54 6 8 mph 1011.6mb 54f 47f
3:48 6 8 mph 1011.8mb 53f 47f
3:36 3 6 mph 1011.9mb 53f 47f
3:30 5 7 mph 1011.8mb 53f 47f
3:24 6 7 mph 1011.7mb 53f 47f
3:18 5 6 mph 1011.9mb 53f 47f
3:12 5 6 mph 1011.9mb 53f 47f
3:06 3 6 mph 1012.1mb 53f 48f
3:00 5 7 mph 1012.2mb 53f 47f
2:54 5 7 mph 1012.2mb 53f 47f
2:48 3 7 mph 1012.2mb 53f 48f
2:36 5 8 mph 1012.2mb 53f 48f
2:30 7 9 mph 1012mb 53f 47f
2:24 7 8 mph 1012mb 53f 47f
2:18 7 9 mph 1012mb 53f 47f
2:12 5 8 mph 1012mb 53f 47f
2:06 6 7 mph 1012.1mb 53f 48f
2:00 6 8 mph 1012.2mb 53f 48f
1:54 6 7 mph 1012.3mb 53f 48f
1:48 3 7 mph 1012.4mb 53f 48f
1:36 6 7 mph 1012.2mb 53f 48f
1:30 6 7 mph 1012.3mb 53f 48f
1:24 5 6 mph 1012.3mb 53f 48f
1:18 6 6 mph 1012.3mb 53f 48f
1:12 5 5 mph 1012.4mb 52f 48f
1:06 5 6 mph 1012.4mb 52f 48f
1:00 3 3 mph 1012.4mb 52f 48f
12:54 2 2 mph 1012.6mb 52f 49f
12:48  -  2 mph 1012.7mb 52f 49f
12:36 2 3 mph 1012.7mb 53f 49f
12:30 2 3 mph 1012.7mb 53f 49f
12:24 3 5 mph 1012.8mb 52f 49f
12:18 1 3 mph 1012.9mb 52f 49f
12:12 2 6 mph 1012.8mb 52f 49f
12:06 5 6 mph 1012.8mb 53f 49f
12:00 3 5 mph 1012.9mb 53f 49f
sáb 09/16 11:54 2 3 mph 1013mb 53f 49f
11:48 2 6 mph 1013.1mb 53f 49f
11:36 3 6 mph 1013mb 53f 49f
11:30 6 6 mph 1013mb 53f 50f
11:24 2 3 mph 1013.2mb 53f 50f
11:18 1 2 mph 1013.3mb 53f 50f
11:12 2 5 mph 1013.2mb 53f 50f
11:06 2 3 mph 1013.3mb 53f 51f
11:00  -  3 mph 1013.4mb 53f 51f
10:54 1 2 mph 1013.5mb 53f 51f
10:36 2 3 mph 1013.6mb 53f 52f
10:30 3 5 mph 1013.5mb 53f 52f
10:24 5 6 mph 1013.6mb 53f 52f
10:18 5 6 mph 1013.7mb 53f 52f
10:12 5 6 mph 1013.6mb 53f 52f
10:06 6 6 mph 1013.9mb 53f 52f
10:00 1 3 mph 1013.6mb 52f 51f
9:54 2 3 mph 1013.7mb 52f 50f
9:48 1 1 mph 1013.6mb 52f 51f
9:36 1 1 mph 1013.6mb 52f 51f
9:30  -  1 mph 1013.5mb 52f 52f
9:24  -  3 mph 1013.4mb 53f 51f
9:18 3 5 mph 1013.3mb 53f 50f
9:12 2 3 mph 1013.3mb 53f 51f
9:06 1 2 mph 1013.4mb 53f 51f
9:00 2 3 mph 1013.4mb 53f 51f
8:54 2 2 mph 1013.4mb 53f 52f
8:48  -  2 mph 1013.4mb 52f 52f
8:36 2 6 mph 1013.6mb 53f 52f